createdAt,value
2019-04-29T00:00:00.598Z,9.10
2019-04-29T00:00:48.897Z,9.10
2019-04-29T00:01:23.586Z,9.10
2019-04-29T00:01:57.862Z,9.10
2019-04-29T00:02:36.580Z,9.10
2019-04-29T00:03:10.765Z,9.10
2019-04-29T00:03:44.980Z,9.10
2019-04-29T00:04:19.285Z,9.10
2019-04-29T00:04:53.512Z,9.10
2019-04-29T00:05:28.142Z,9.10
2019-04-29T00:06:02.566Z,9.10
2019-04-29T00:06:37.332Z,9.10
2019-04-29T00:07:11.939Z,9.10
2019-04-29T00:07:46.156Z,9.10
2019-04-29T00:08:20.522Z,9.10
2019-04-29T00:08:54.907Z,9.10
2019-04-29T00:09:30.930Z,9.10
2019-04-29T00:10:07.249Z,9.10
2019-04-29T00:10:41.584Z,9.10
2019-04-29T00:11:15.942Z,9.10
2019-04-29T00:11:50.370Z,9.10
2019-04-29T00:12:24.827Z,9.10
2019-04-29T00:12:59.164Z,9.10
2019-04-29T00:13:33.618Z,9.10
2019-04-29T00:14:08.839Z,9.10
2019-04-29T00:14:45.809Z,9.10
2019-04-29T00:15:39.250Z,9.10
2019-04-29T00:16:32.962Z,9.10
2019-04-29T00:17:16.927Z,9.10
2019-04-29T00:17:57.559Z,9.10
2019-04-29T00:18:46.665Z,9.00
2019-04-29T00:19:40.156Z,9.10
2019-04-29T00:20:33.555Z,9.10
2019-04-29T00:21:07.788Z,9.10
2019-04-29T00:21:41.916Z,9.00
2019-04-29T00:22:16.103Z,9.00
2019-04-29T00:22:50.190Z,9.00
2019-04-29T00:23:24.212Z,9.00
2019-04-29T00:24:04.038Z,9.00
2019-04-29T00:24:34.152Z,9.00
2019-04-29T00:25:08.729Z,9.00
2019-04-29T00:25:43.308Z,9.00
2019-04-29T00:26:17.323Z,9.00
2019-04-29T00:26:51.671Z,9.00
2019-04-29T00:27:25.739Z,9.00
2019-04-29T00:27:59.975Z,9.00
2019-04-29T00:28:34.287Z,9.00
2019-04-29T00:29:08.575Z,9.00
2019-04-29T00:29:42.886Z,9.00
2019-04-29T00:30:20.764Z,9.00
2019-04-29T00:30:54.866Z,9.00
2019-04-29T00:31:29.077Z,9.00
2019-04-29T00:32:04.230Z,9.00
2019-04-29T00:32:38.543Z,9.00
2019-04-29T00:33:12.917Z,9.00
2019-04-29T00:33:46.981Z,9.00
2019-04-29T00:34:21.212Z,9.00
2019-04-29T00:34:55.349Z,9.00
2019-04-29T00:35:29.715Z,9.00
2019-04-29T00:36:04.023Z,9.00
2019-04-29T00:36:44.879Z,9.00
2019-04-29T00:37:34.301Z,9.00
2019-04-29T00:38:27.527Z,9.00
2019-04-29T00:39:20.894Z,9.00
2019-04-29T00:40:14.185Z,9.00
2019-04-29T00:41:07.446Z,9.00
2019-04-29T00:42:00.880Z,9.00
2019-04-29T00:42:54.039Z,9.00
2019-04-29T00:43:33.354Z,9.00
2019-04-29T00:44:09.640Z,9.00
2019-04-29T00:44:44.045Z,9.00
2019-04-29T00:45:18.467Z,9.00
2019-04-29T00:45:52.600Z,9.00
2019-04-29T00:46:26.779Z,9.00
2019-04-29T00:47:00.839Z,9.00
2019-04-29T00:47:34.987Z,9.00
2019-04-29T00:48:09.184Z,9.00
2019-04-29T00:48:43.410Z,9.00
2019-04-29T00:49:17.724Z,9.00
2019-04-29T00:49:51.924Z,9.00
2019-04-29T00:50:26.069Z,9.00
2019-04-29T00:51:00.364Z,9.00
2019-04-29T00:51:34.432Z,9.00
2019-04-29T00:52:08.635Z,9.00
2019-04-29T00:52:42.935Z,9.00
2019-04-29T00:53:17.367Z,9.00
2019-04-29T00:53:53.366Z,9.00
2019-04-29T00:54:37.048Z,9.00
2019-04-29T00:55:14.079Z,9.00
2019-04-29T00:55:50.306Z,9.00
2019-04-29T00:56:24.730Z,9.00
2019-04-29T00:56:59.188Z,9.00
2019-04-29T00:57:33.572Z,9.00
2019-04-29T00:58:07.879Z,9.00
2019-04-29T00:58:42.070Z,9.00
2019-04-29T00:59:16.929Z,9.00
2019-04-29T00:59:51.205Z,9.00
2019-04-29T01:00:32.167Z,9.00
2019-04-29T01:01:11.195Z,9.00
2019-04-29T01:01:45.763Z,9.00
2019-04-29T01:02:20.074Z,9.00
2019-04-29T01:02:57.449Z,9.00
2019-04-29T01:03:31.847Z,9.00
2019-04-29T01:04:06.370Z,9.00
2019-04-29T01:04:40.497Z,9.00
2019-04-29T01:05:14.779Z,9.00
2019-04-29T01:05:49.062Z,9.00
2019-04-29T01:06:23.365Z,9.00
2019-04-29T01:06:57.598Z,9.00
2019-04-29T01:07:31.886Z,9.00
2019-04-29T01:08:06.286Z,9.00
2019-04-29T01:08:40.643Z,9.00
2019-04-29T01:09:16.545Z,9.00
2019-04-29T01:09:50.722Z,9.00
2019-04-29T01:10:25.193Z,9.00
2019-04-29T01:10:59.642Z,9.00
2019-04-29T01:11:34.424Z,9.00
2019-04-29T01:12:08.795Z,9.00
2019-04-29T01:12:42.762Z,9.00
2019-04-29T01:13:17.114Z,9.00
2019-04-29T01:13:51.530Z,9.00
2019-04-29T01:14:25.730Z,9.00
2019-04-29T01:15:00.030Z,9.00
2019-04-29T01:15:34.429Z,9.00
2019-04-29T01:16:08.653Z,9.00
2019-04-29T01:16:43.011Z,9.00
2019-04-29T01:17:17.493Z,9.00
2019-04-29T01:17:51.932Z,9.00
2019-04-29T01:18:26.172Z,9.00
2019-04-29T01:19:03.715Z,9.00
2019-04-29T01:19:36.410Z,9.00
2019-04-29T01:20:11.070Z,9.00
2019-04-29T01:20:45.367Z,9.00
2019-04-29T01:21:19.676Z,9.00
2019-04-29T01:21:53.907Z,9.00
2019-04-29T01:22:28.746Z,9.10
2019-04-29T01:23:03.157Z,9.10
2019-04-29T01:23:37.269Z,9.10
2019-04-29T01:24:11.497Z,9.10
2019-04-29T01:24:45.927Z,9.00
2019-04-29T01:25:20.311Z,9.00
2019-04-29T01:25:58.669Z,9.00
2019-04-29T01:26:51.824Z,9.00
2019-04-29T01:27:31.269Z,9.10
2019-04-29T01:28:21.489Z,9.10
2019-04-29T01:28:55.893Z,9.10
2019-04-29T01:29:30.427Z,9.10
2019-04-29T01:30:06.085Z,9.10
2019-04-29T01:31:09.913Z,9.10
2019-04-29T01:31:44.536Z,9.10
2019-04-29T01:32:18.739Z,9.00
2019-04-29T01:32:52.977Z,9.00
2019-04-29T01:33:27.315Z,9.00
2019-04-29T01:34:08.705Z,9.00
2019-04-29T01:34:51.926Z,9.10
2019-04-29T01:35:26.095Z,9.00
2019-04-29T01:36:19.365Z,9.10
2019-04-29T01:36:53.980Z,9.10
2019-04-29T01:37:46.425Z,9.10
2019-04-29T01:38:20.769Z,9.10
2019-04-29T01:38:56.582Z,9.00
2019-04-29T01:39:39.446Z,9.10
2019-04-29T01:40:33.015Z,9.10
2019-04-29T01:41:13.105Z,9.00
2019-04-29T01:42:06.505Z,9.00
2019-04-29T01:42:41.784Z,9.10
2019-04-29T01:43:15.921Z,9.10
2019-04-29T01:44:00.362Z,9.10
2019-04-29T01:44:36.239Z,9.10
2019-04-29T01:45:10.493Z,9.00
2019-04-29T01:45:44.616Z,9.10
2019-04-29T01:46:18.769Z,9.00
2019-04-29T01:46:53.069Z,9.10
2019-04-29T01:47:27.155Z,9.10
2019-04-29T01:48:01.309Z,9.10
2019-04-29T01:48:35.411Z,9.10
2019-04-29T01:49:09.625Z,9.10
2019-04-29T01:49:43.779Z,9.10
2019-04-29T01:50:17.960Z,9.10
2019-04-29T01:50:52.124Z,9.10
2019-04-29T01:51:26.631Z,9.10
2019-04-29T01:52:00.996Z,9.10
2019-04-29T01:52:35.342Z,9.10
2019-04-29T01:53:09.444Z,9.10
2019-04-29T01:53:43.671Z,9.10
2019-04-29T01:54:17.764Z,9.10
2019-04-29T01:54:51.934Z,9.10
2019-04-29T01:55:26.151Z,9.10
2019-04-29T01:56:00.444Z,9.10
2019-04-29T01:56:34.470Z,9.10
2019-04-29T01:57:08.758Z,9.10
2019-04-29T01:57:43.046Z,9.10
2019-04-29T01:58:17.255Z,9.10
2019-04-29T01:58:51.761Z,9.10
2019-04-29T01:59:26.075Z,9.10
2019-04-29T02:00:00.341Z,9.10
2019-04-29T02:00:34.557Z,9.10
2019-04-29T02:01:08.779Z,9.10
2019-04-29T02:01:43.150Z,9.10
2019-04-29T02:02:17.377Z,9.10
2019-04-29T02:02:51.587Z,9.10
2019-04-29T02:03:25.629Z,9.10
2019-04-29T02:03:59.743Z,9.10
2019-04-29T02:04:33.950Z,9.10
2019-04-29T02:05:08.194Z,9.20
2019-04-29T02:05:42.257Z,9.10
2019-04-29T02:06:16.347Z,9.20
2019-04-29T02:06:50.796Z,9.20
2019-04-29T02:07:25.017Z,9.20
2019-04-29T02:07:59.427Z,9.20
2019-04-29T02:08:33.627Z,9.20
2019-04-29T02:09:11.256Z,9.20
2019-04-29T02:10:04.407Z,9.20
2019-04-29T02:10:38.633Z,9.20
2019-04-29T02:11:12.826Z,9.20
2019-04-29T02:11:46.869Z,9.20
2019-04-29T02:12:21.099Z,9.20
2019-04-29T02:12:55.208Z,9.20
2019-04-29T02:13:29.237Z,9.20
2019-04-29T02:14:03.428Z,9.20
2019-04-29T02:14:37.459Z,9.10
2019-04-29T02:15:11.802Z,9.10
2019-04-29T02:15:45.996Z,9.10
2019-04-29T02:16:20.132Z,9.10
2019-04-29T02:16:54.394Z,9.20
2019-04-29T02:17:31.401Z,9.20
2019-04-29T02:18:05.527Z,9.10
2019-04-29T02:18:39.650Z,9.20
2019-04-29T02:19:13.909Z,9.10
2019-04-29T02:19:48.106Z,9.10
2019-04-29T02:20:22.277Z,9.10
2019-04-29T02:20:56.623Z,9.10
2019-04-29T02:21:30.722Z,9.10
2019-04-29T02:22:24.037Z,9.20
2019-04-29T02:23:17.177Z,9.20
2019-04-29T02:24:05.377Z,9.20
2019-04-29T02:24:41.869Z,9.20
2019-04-29T02:25:23.467Z,9.20
2019-04-29T02:25:57.669Z,9.20
2019-04-29T02:26:31.717Z,9.20
2019-04-29T02:27:05.957Z,9.20
2019-04-29T02:27:40.060Z,9.20
2019-04-29T02:28:14.260Z,9.20
2019-04-29T02:28:48.884Z,9.20
2019-04-29T02:29:22.997Z,9.20
2019-04-29T02:29:57.081Z,9.20
2019-04-29T02:30:44.620Z,9.20
2019-04-29T02:31:37.956Z,9.20
2019-04-29T02:32:12.098Z,9.20
2019-04-29T02:32:46.246Z,9.20
2019-04-29T02:33:20.552Z,9.20
2019-04-29T02:33:54.799Z,9.20
2019-04-29T02:34:28.959Z,9.20
2019-04-29T02:35:03.379Z,9.20
2019-04-29T02:35:37.563Z,9.20
2019-04-29T02:36:11.773Z,9.20
2019-04-29T02:36:45.880Z,9.20
2019-04-29T02:37:26.327Z,9.20
2019-04-29T02:38:00.645Z,9.20
2019-04-29T02:38:53.881Z,9.20
2019-04-29T02:39:39.449Z,9.20
2019-04-29T02:40:21.499Z,9.20
2019-04-29T02:41:04.480Z,9.20
2019-04-29T02:41:57.886Z,9.20
2019-04-29T02:42:53.324Z,9.20
2019-04-29T02:43:28.899Z,9.20
2019-04-29T02:44:04.656Z,9.20
2019-04-29T02:44:39.066Z,9.20
2019-04-29T02:45:18.293Z,9.20
2019-04-29T02:45:52.401Z,9.20
2019-04-29T02:46:26.741Z,9.20
2019-04-29T02:47:00.993Z,9.20
2019-04-29T02:47:35.218Z,9.20
2019-04-29T02:48:09.461Z,9.20
2019-04-29T02:48:43.627Z,9.20
2019-04-29T02:49:18.016Z,9.20
2019-04-29T02:49:52.305Z,9.20
2019-04-29T02:50:26.505Z,9.20
2019-04-29T02:51:00.916Z,9.20
2019-04-29T02:51:54.275Z,9.20
2019-04-29T02:52:28.466Z,9.20
2019-04-29T02:53:02.567Z,9.20
2019-04-29T02:53:36.826Z,9.20
2019-04-29T02:54:10.981Z,9.20
2019-04-29T02:54:45.629Z,9.20
2019-04-29T02:55:28.788Z,9.20
2019-04-29T02:56:03.172Z,9.20
2019-04-29T02:56:37.650Z,9.20
2019-04-29T02:57:20.413Z,9.20
2019-04-29T02:58:00.718Z,9.20
2019-04-29T02:58:43.586Z,9.20
2019-04-29T02:59:19.419Z,9.20
2019-04-29T02:59:56.748Z,9.20
2019-04-29T03:00:50.126Z,9.20
2019-04-29T03:01:43.364Z,9.20
2019-04-29T03:02:29.046Z,9.10
2019-04-29T03:03:10.397Z,9.20
2019-04-29T03:04:03.891Z,9.10
2019-04-29T03:04:57.423Z,9.10
2019-04-29T03:05:40.424Z,9.10
2019-04-29T03:06:14.731Z,9.10
2019-04-29T03:06:49.097Z,9.10
2019-04-29T03:07:23.385Z,9.10
2019-04-29T03:07:57.857Z,9.10
2019-04-29T03:08:32.071Z,9.10
2019-04-29T03:09:07.746Z,9.10
2019-04-29T03:09:45.300Z,9.10
2019-04-29T03:10:19.417Z,9.10
2019-04-29T03:10:53.702Z,9.10
2019-04-29T03:11:28.019Z,9.10
2019-04-29T03:12:02.470Z,9.10
2019-04-29T03:12:36.758Z,9.10
2019-04-29T03:13:10.893Z,9.10
2019-04-29T03:13:45.047Z,9.10
2019-04-29T03:14:19.575Z,9.10
2019-04-29T03:14:53.816Z,9.00
2019-04-29T03:15:33.180Z,9.00
2019-04-29T03:16:07.369Z,9.00
2019-04-29T03:16:41.598Z,9.00
2019-04-29T03:17:18.632Z,9.00
2019-04-29T03:17:52.446Z,9.00
2019-04-29T03:18:29.046Z,9.00
2019-04-29T03:19:07.684Z,9.00
2019-04-29T03:20:01.332Z,9.10
2019-04-29T03:20:46.168Z,9.00
2019-04-29T03:21:31.128Z,9.10
2019-04-29T03:22:06.706Z,9.10
2019-04-29T03:22:41.495Z,9.10
2019-04-29T03:23:17.827Z,9.10
2019-04-29T03:23:52.220Z,9.10
2019-04-29T03:24:26.378Z,9.10
2019-04-29T03:25:00.526Z,9.10
2019-04-29T03:25:34.896Z,9.10
2019-04-29T03:26:09.142Z,9.10
2019-04-29T03:26:43.532Z,9.10
2019-04-29T03:27:17.743Z,9.10
2019-04-29T03:27:51.811Z,9.10
2019-04-29T03:28:26.006Z,9.10
2019-04-29T03:29:00.104Z,9.10
2019-04-29T03:29:34.396Z,9.10
2019-04-29T03:30:09.493Z,9.00
2019-04-29T03:30:43.820Z,9.10
2019-04-29T03:31:18.465Z,9.10
2019-04-29T03:31:54.981Z,9.00
2019-04-29T03:32:29.347Z,9.00
2019-04-29T03:33:03.857Z,9.10
2019-04-29T03:33:38.131Z,9.00
2019-04-29T03:34:12.363Z,9.10
2019-04-29T03:34:46.608Z,9.00
2019-04-29T03:35:21.089Z,9.10
2019-04-29T03:35:55.436Z,9.10
2019-04-29T03:36:29.647Z,9.10
2019-04-29T03:37:04.081Z,9.00
2019-04-29T03:37:38.407Z,9.10
2019-04-29T03:38:12.620Z,9.10
2019-04-29T03:38:46.969Z,9.10
2019-04-29T03:39:21.502Z,9.10
2019-04-29T03:39:56.103Z,9.10
2019-04-29T03:40:30.545Z,9.10
2019-04-29T03:41:04.904Z,9.10
2019-04-29T03:41:39.027Z,9.10
2019-04-29T03:42:13.124Z,9.10
2019-04-29T03:42:47.360Z,9.10
2019-04-29T03:43:21.708Z,9.10
2019-04-29T03:43:55.936Z,9.10
2019-04-29T03:44:29.949Z,9.10
2019-04-29T03:45:04.923Z,9.10
2019-04-29T03:45:39.149Z,9.10
2019-04-29T03:46:13.547Z,9.10
2019-04-29T03:46:47.697Z,9.10
2019-04-29T03:47:21.875Z,9.10
2019-04-29T03:47:56.227Z,9.10
2019-04-29T03:48:30.365Z,9.20
2019-04-29T03:49:04.888Z,9.20
2019-04-29T03:49:39.176Z,9.20
2019-04-29T03:50:13.583Z,9.20
2019-04-29T03:50:47.908Z,9.20
2019-04-29T03:51:22.088Z,9.20
2019-04-29T03:51:56.388Z,9.20
2019-04-29T03:52:30.565Z,9.20
2019-04-29T03:53:04.878Z,9.20
2019-04-29T03:53:39.130Z,9.20
2019-04-29T03:54:13.314Z,9.20
2019-04-29T03:54:47.528Z,9.20
2019-04-29T03:55:38.201Z,9.10
2019-04-29T03:55:57.846Z,9.20
2019-04-29T03:56:32.217Z,9.20
2019-04-29T03:57:07.102Z,9.20
2019-04-29T03:57:41.488Z,9.20
2019-04-29T03:58:15.764Z,9.20
2019-04-29T03:58:50.162Z,9.20
2019-04-29T03:59:24.276Z,9.20
2019-04-29T03:59:58.390Z,9.20
2019-04-29T04:00:32.833Z,9.20
2019-04-29T04:01:18.822Z,9.20
2019-04-29T04:02:05.216Z,9.20
2019-04-29T04:02:48.405Z,9.20
2019-04-29T04:03:29.974Z,9.20
2019-04-29T04:04:20.138Z,9.20
2019-04-29T04:05:04.919Z,9.20
2019-04-29T04:05:47.480Z,9.20
2019-04-29T04:06:26.621Z,9.20
2019-04-29T04:07:19.955Z,9.20
2019-04-29T04:07:58.767Z,9.20
2019-04-29T04:08:38.716Z,9.20
2019-04-29T04:09:18.658Z,9.20
2019-04-29T04:09:52.936Z,9.20
2019-04-29T04:10:27.344Z,9.20
2019-04-29T04:11:01.775Z,9.20
2019-04-29T04:11:36.057Z,9.20
2019-04-29T04:12:10.346Z,9.20
2019-04-29T04:12:44.758Z,9.20
2019-04-29T04:13:19.094Z,9.20
2019-04-29T04:13:53.573Z,9.20
2019-04-29T04:14:27.701Z,9.20
2019-04-29T04:15:02.110Z,9.30
2019-04-29T04:15:36.555Z,9.30
2019-04-29T04:16:14.824Z,9.30
2019-04-29T04:17:08.183Z,9.30
2019-04-29T04:17:48.379Z,9.30
2019-04-29T04:18:29.973Z,9.30
2019-04-29T04:19:09.298Z,9.30
2019-04-29T04:19:43.478Z,9.30
2019-04-29T04:20:17.705Z,9.30
2019-04-29T04:20:52.155Z,9.30
2019-04-29T04:21:26.394Z,9.30
2019-04-29T04:22:00.721Z,9.30
2019-04-29T04:22:46.603Z,9.30
2019-04-29T04:23:20.846Z,9.30
2019-04-29T04:23:58.108Z,9.30
2019-04-29T04:24:31.124Z,9.30
2019-04-29T04:25:06.096Z,9.30
2019-04-29T04:25:40.473Z,9.30
2019-04-29T04:26:14.524Z,9.30
2019-04-29T04:26:48.847Z,9.30
2019-04-29T04:27:22.988Z,9.30
2019-04-29T04:27:57.353Z,9.30
2019-04-29T04:28:31.485Z,9.30
2019-04-29T04:29:05.674Z,9.30
2019-04-29T04:29:39.909Z,9.30
2019-04-29T04:30:15.159Z,9.30
2019-04-29T04:30:49.404Z,9.30
2019-04-29T04:31:23.801Z,9.30
2019-04-29T04:31:58.046Z,9.30
2019-04-29T04:32:32.501Z,9.30
2019-04-29T04:33:06.880Z,9.30
2019-04-29T04:33:41.212Z,9.30
2019-04-29T04:34:15.452Z,9.30
2019-04-29T04:34:49.885Z,9.30
2019-04-29T04:35:24.098Z,9.30
2019-04-29T04:35:58.123Z,9.30
2019-04-29T04:36:32.465Z,9.30
2019-04-29T04:37:06.667Z,9.30
2019-04-29T04:37:41.060Z,9.40
2019-04-29T04:38:15.340Z,9.40
2019-04-29T04:38:49.447Z,9.40
2019-04-29T04:39:24.062Z,9.40
2019-04-29T04:39:58.254Z,9.30
2019-04-29T04:40:36.952Z,9.40
2019-04-29T04:41:11.458Z,9.40
2019-04-29T04:41:45.877Z,9.40
2019-04-29T04:42:20.087Z,9.40
2019-04-29T04:42:54.446Z,9.40
2019-04-29T04:43:28.663Z,9.40
2019-04-29T04:44:03.037Z,9.40
2019-04-29T04:44:56.548Z,9.40
2019-04-29T04:45:30.934Z,9.40
2019-04-29T04:46:05.146Z,9.50
2019-04-29T04:46:39.456Z,9.50
2019-04-29T04:47:13.764Z,9.40
2019-04-29T04:47:47.972Z,9.40
2019-04-29T04:48:22.065Z,9.40
2019-04-29T04:48:56.169Z,9.40
2019-04-29T04:49:30.476Z,9.40
2019-04-29T04:50:04.862Z,9.40
2019-04-29T04:50:39.153Z,9.40
2019-04-29T04:51:13.267Z,9.40
2019-04-29T04:51:47.466Z,9.40
2019-04-29T04:52:21.750Z,9.40
2019-04-29T04:52:56.108Z,9.40
2019-04-29T04:53:30.495Z,9.40
2019-04-29T04:54:04.965Z,9.40
2019-04-29T04:54:39.181Z,9.40
2019-04-29T04:55:13.636Z,9.40
2019-04-29T04:55:48.835Z,9.40
2019-04-29T04:56:23.067Z,9.40
2019-04-29T04:56:57.342Z,9.40
2019-04-29T04:57:31.466Z,9.40
2019-04-29T04:58:05.846Z,9.40
2019-04-29T04:58:40.146Z,9.40
2019-04-29T04:59:14.470Z,9.40
2019-04-29T04:59:48.750Z,9.40
2019-04-29T05:00:23.989Z,9.40
2019-04-29T05:00:58.212Z,9.40
2019-04-29T05:01:32.390Z,9.50
2019-04-29T05:02:06.590Z,9.40
2019-04-29T05:02:40.696Z,9.50
2019-04-29T05:03:14.920Z,9.50
2019-04-29T05:03:49.153Z,9.50
2019-04-29T05:04:23.341Z,9.50
2019-04-29T05:04:57.487Z,9.50
2019-04-29T05:05:32.319Z,9.50
2019-04-29T05:06:06.590Z,9.50
2019-04-29T05:06:40.715Z,9.50
2019-04-29T05:07:14.815Z,9.50
2019-04-29T05:07:49.187Z,9.50
2019-04-29T05:08:23.414Z,9.50
2019-04-29T05:08:57.745Z,9.50
2019-04-29T05:09:32.016Z,9.50
2019-04-29T05:10:06.887Z,9.50
2019-04-29T05:10:41.149Z,9.50
2019-04-29T05:11:15.279Z,9.40
2019-04-29T05:11:49.570Z,9.40
2019-04-29T05:12:23.745Z,9.40
2019-04-29T05:12:57.771Z,9.50
2019-04-29T05:13:32.057Z,9.50
2019-04-29T05:14:06.335Z,9.40
2019-04-29T05:14:40.608Z,9.50
2019-04-29T05:15:14.960Z,9.50
2019-04-29T05:15:49.043Z,9.50
2019-04-29T05:16:23.236Z,9.50
2019-04-29T05:16:57.391Z,9.50
2019-04-29T05:17:31.664Z,9.50
2019-04-29T05:18:06.087Z,9.50
2019-04-29T05:18:40.299Z,9.50
2019-04-29T05:19:14.788Z,9.50
2019-04-29T05:19:49.084Z,9.50
2019-04-29T05:20:23.389Z,9.50
2019-04-29T05:20:57.902Z,9.50
2019-04-29T05:21:32.050Z,9.50
2019-04-29T05:22:06.407Z,9.50
2019-04-29T05:22:44.078Z,9.60
2019-04-29T05:23:18.253Z,9.60
2019-04-29T05:23:52.386Z,9.60
2019-04-29T05:24:26.805Z,9.50
2019-04-29T05:25:00.907Z,9.50
2019-04-29T05:25:35.390Z,9.50
2019-04-29T05:26:09.823Z,9.50
2019-04-29T05:26:43.983Z,9.60
2019-04-29T05:27:18.035Z,9.60
2019-04-29T05:27:52.254Z,9.60
2019-04-29T05:28:26.550Z,9.60
2019-04-29T05:29:00.790Z,9.60
2019-04-29T05:29:34.941Z,9.50
2019-04-29T05:30:09.444Z,9.60
2019-04-29T05:30:43.648Z,9.50
2019-04-29T05:31:17.968Z,9.60
2019-04-29T05:31:52.239Z,9.60
2019-04-29T05:32:26.340Z,9.60
2019-04-29T05:33:00.668Z,9.60
2019-04-29T05:33:34.841Z,9.60
2019-04-29T05:34:09.178Z,9.60
2019-04-29T05:34:46.442Z,9.60
2019-04-29T05:35:24.941Z,9.60
2019-04-29T05:36:18.429Z,9.60
2019-04-29T05:36:59.750Z,9.60
2019-04-29T05:37:43.490Z,9.50
2019-04-29T05:38:22.089Z,9.50
2019-04-29T05:39:12.055Z,9.50
2019-04-29T05:39:46.356Z,9.50
2019-04-29T05:40:39.784Z,9.50
2019-04-29T05:41:14.015Z,9.60
2019-04-29T05:41:48.507Z,9.60
2019-04-29T05:42:22.676Z,9.60
2019-04-29T05:42:56.814Z,9.60
2019-04-29T05:43:40.704Z,9.60
2019-04-29T05:44:30.796Z,9.60
2019-04-29T05:45:16.696Z,9.60
2019-04-29T05:46:00.522Z,9.50
2019-04-29T05:46:44.706Z,9.50
2019-04-29T05:47:28.793Z,9.60
2019-04-29T05:48:12.952Z,9.50
2019-04-29T05:48:47.444Z,9.50
2019-04-29T05:49:26.345Z,9.50
2019-04-29T05:50:19.619Z,9.60
2019-04-29T05:51:13.090Z,9.60
2019-04-29T05:51:53.209Z,9.50
2019-04-29T05:52:42.428Z,9.50
2019-04-29T05:53:23.312Z,9.50
2019-04-29T05:53:58.945Z,9.50
2019-04-29T05:54:34.174Z,9.50
2019-04-29T05:55:09.444Z,9.50
2019-04-29T05:55:45.020Z,9.50
2019-04-29T05:56:19.347Z,9.50
2019-04-29T05:56:53.842Z,9.60
2019-04-29T05:57:28.353Z,9.60
2019-04-29T05:58:12.810Z,9.50
2019-04-29T05:58:47.086Z,9.50
2019-04-29T05:59:21.396Z,9.50
2019-04-29T05:59:55.597Z,9.50
2019-04-29T06:00:29.805Z,9.50
2019-04-29T06:01:09.621Z,9.50
2019-04-29T06:01:47.196Z,9.50
2019-04-29T06:02:24.021Z,9.60
2019-04-29T06:02:56.209Z,9.50
2019-04-29T06:03:33.494Z,9.60
2019-04-29T06:04:06.546Z,9.50
2019-04-29T06:04:40.745Z,9.60
2019-04-29T06:05:15.277Z,9.60
2019-04-29T06:05:49.476Z,9.60
2019-04-29T06:06:23.917Z,9.70
2019-04-29T06:06:57.992Z,9.70
2019-04-29T06:07:32.333Z,9.70
2019-04-29T06:08:06.881Z,9.70
2019-04-29T06:08:41.071Z,9.70
2019-04-29T06:09:16.765Z,9.70
2019-04-29T06:09:50.941Z,9.70
2019-04-29T06:10:25.264Z,9.70
2019-04-29T06:10:59.465Z,9.70
2019-04-29T06:11:33.675Z,9.80
2019-04-29T06:12:08.130Z,9.80
2019-04-29T06:12:44.442Z,9.80
2019-04-29T06:13:18.541Z,9.80
2019-04-29T06:13:52.723Z,9.80
2019-04-29T06:14:26.818Z,9.80
2019-04-29T06:15:01.027Z,9.90
2019-04-29T06:15:35.232Z,9.90
2019-04-29T06:16:09.548Z,9.90
2019-04-29T06:16:43.980Z,9.80
2019-04-29T06:17:18.353Z,9.80
2019-04-29T06:17:52.679Z,9.90
2019-04-29T06:18:26.960Z,9.90
2019-04-29T06:19:05.563Z,9.90
2019-04-29T06:19:39.262Z,9.90
2019-04-29T06:20:18.008Z,9.90
2019-04-29T06:20:49.787Z,9.80
2019-04-29T06:21:24.105Z,9.90
2019-04-29T06:21:58.257Z,9.90
2019-04-29T06:22:32.407Z,9.90
2019-04-29T06:23:06.804Z,9.80
2019-04-29T06:23:40.997Z,9.90
2019-04-29T06:24:15.257Z,9.80
2019-04-29T06:24:49.497Z,9.90
2019-04-29T06:25:23.773Z,9.90
2019-04-29T06:25:58.089Z,9.80
2019-04-29T06:26:32.224Z,9.80
2019-04-29T06:27:06.743Z,9.80
2019-04-29T06:27:40.960Z,9.80
2019-04-29T06:28:15.288Z,9.80
2019-04-29T06:28:49.733Z,9.80
2019-04-29T06:29:23.915Z,9.80
2019-04-29T06:29:58.565Z,9.80
2019-04-29T06:30:36.918Z,9.80
2019-04-29T06:31:10.146Z,9.80
2019-04-29T06:31:44.470Z,9.80
2019-04-29T06:32:20.293Z,9.80
2019-04-29T06:32:54.911Z,9.80
2019-04-29T06:33:30.987Z,9.80
2019-04-29T06:34:06.569Z,9.80
2019-04-29T06:34:41.795Z,9.80
2019-04-29T06:35:16.513Z,9.80
2019-04-29T06:35:50.966Z,9.80
2019-04-29T06:36:25.227Z,9.80
2019-04-29T06:36:59.617Z,9.80
2019-04-29T06:37:33.955Z,9.80
2019-04-29T06:38:08.470Z,9.80
2019-04-29T06:38:42.951Z,9.90
2019-04-29T06:39:17.114Z,9.80
2019-04-29T06:39:51.395Z,9.80
2019-04-29T06:40:25.861Z,9.80
2019-04-29T06:41:00.504Z,9.80
2019-04-29T06:41:34.789Z,9.80
2019-04-29T06:42:09.149Z,9.80
2019-04-29T06:42:43.669Z,9.80
2019-04-29T06:43:18.009Z,9.80
2019-04-29T06:43:55.735Z,9.80
2019-04-29T06:44:28.346Z,9.80
2019-04-29T06:45:02.606Z,9.80
2019-04-29T06:45:36.745Z,9.80
2019-04-29T06:46:11.176Z,9.80
2019-04-29T06:46:45.497Z,9.70
2019-04-29T06:47:19.673Z,9.70
2019-04-29T06:47:54.267Z,9.70
2019-04-29T06:48:28.422Z,9.80
2019-04-29T06:49:10.210Z,9.80
2019-04-29T06:49:38.322Z,9.70
2019-04-29T06:50:12.957Z,9.80
2019-04-29T06:50:49.681Z,9.80
2019-04-29T06:51:23.076Z,9.70
2019-04-29T06:51:57.385Z,9.80
2019-04-29T06:52:31.755Z,9.80
2019-04-29T06:53:06.326Z,9.80
2019-04-29T06:53:40.386Z,9.80
2019-04-29T06:54:14.596Z,9.80
2019-04-29T06:54:48.820Z,9.80
2019-04-29T06:55:23.205Z,9.90
2019-04-29T06:55:57.376Z,9.80
2019-04-29T06:56:31.605Z,9.80
2019-04-29T06:57:05.859Z,9.80
2019-04-29T06:57:39.910Z,9.80
2019-04-29T06:58:14.114Z,9.80
2019-04-29T06:58:49.109Z,9.90
2019-04-29T06:59:23.448Z,9.90
2019-04-29T06:59:57.478Z,9.80
2019-04-29T07:00:31.510Z,9.90
2019-04-29T07:01:06.020Z,9.90
2019-04-29T07:01:40.145Z,9.90
2019-04-29T07:02:15.941Z,9.90
2019-04-29T07:02:51.089Z,9.90
2019-04-29T07:03:26.590Z,9.90
2019-04-29T07:04:01.498Z,9.90
2019-04-29T07:04:38.710Z,9.90
2019-04-29T07:05:11.861Z,9.90
2019-04-29T07:05:46.212Z,10.00
2019-04-29T07:06:20.438Z,10.00
2019-04-29T07:06:57.472Z,10.00
2019-04-29T07:07:30.759Z,10.10
2019-04-29T07:08:05.098Z,10.10
2019-04-29T07:08:39.373Z,10.10
2019-04-29T07:09:13.858Z,10.10
2019-04-29T07:09:48.101Z,10.10
2019-04-29T07:10:27.024Z,10.10
2019-04-29T07:11:01.062Z,10.10
2019-04-29T07:11:36.493Z,10.10
2019-04-29T07:12:12.530Z,10.10
2019-04-29T07:12:48.458Z,10.10
2019-04-29T07:13:24.438Z,10.10
2019-04-29T07:13:59.361Z,10.10
2019-04-29T07:14:38.321Z,10.10
2019-04-29T07:15:12.340Z,10.20
2019-04-29T07:15:47.856Z,10.20
2019-04-29T07:16:26.326Z,10.20
2019-04-29T07:17:00.851Z,10.20
2019-04-29T07:17:36.407Z,10.30
2019-04-29T07:18:09.768Z,10.20
2019-04-29T07:18:48.287Z,10.20
2019-04-29T07:19:22.237Z,10.20
2019-04-29T07:19:57.574Z,10.20
2019-04-29T07:20:36.932Z,10.20
2019-04-29T07:21:11.919Z,10.20
2019-04-29T07:21:46.904Z,10.30
2019-04-29T07:22:25.591Z,10.30
2019-04-29T07:23:00.746Z,10.30
2019-04-29T07:23:32.548Z,10.30
2019-04-29T07:24:06.883Z,10.30
2019-04-29T07:24:40.939Z,10.30
2019-04-29T07:25:15.204Z,10.30
2019-04-29T07:25:49.420Z,10.30
2019-04-29T07:26:23.660Z,10.30
2019-04-29T07:27:02.579Z,10.30
2019-04-29T07:27:34.542Z,10.30
2019-04-29T07:28:13.654Z,10.20
2019-04-29T07:28:48.783Z,10.20
2019-04-29T07:29:25.398Z,10.30
2019-04-29T07:29:57.323Z,10.20
2019-04-29T07:30:31.626Z,10.30
2019-04-29T07:31:05.826Z,10.30
2019-04-29T07:31:39.899Z,10.30
2019-04-29T07:32:14.491Z,10.30
2019-04-29T07:32:48.981Z,10.30
2019-04-29T07:33:24.536Z,10.30
2019-04-29T07:33:59.129Z,10.30
2019-04-29T07:34:35.653Z,10.30
2019-04-29T07:35:11.313Z,10.30
2019-04-29T07:35:47.991Z,10.30
2019-04-29T07:36:22.866Z,10.30
2019-04-29T07:36:59.401Z,10.40
2019-04-29T07:37:35.570Z,10.40
2019-04-29T07:38:09.960Z,10.40
2019-04-29T07:38:46.587Z,10.40
2019-04-29T07:39:20.080Z,10.30
2019-04-29T07:39:54.320Z,10.30
2019-04-29T07:40:28.714Z,10.40
2019-04-29T07:41:02.924Z,10.30
2019-04-29T07:41:37.032Z,10.40
2019-04-29T07:42:11.219Z,10.40
2019-04-29T07:42:45.523Z,10.40
2019-04-29T07:43:19.825Z,10.40
2019-04-29T07:43:53.936Z,10.40
2019-04-29T07:44:43.357Z,10.40
2019-04-29T07:45:28.106Z,10.40
2019-04-29T07:46:08.431Z,10.40
2019-04-29T07:46:56.585Z,10.40
2019-04-29T07:47:24.965Z,10.50
2019-04-29T07:48:01.681Z,10.50
2019-04-29T07:48:36.796Z,10.50
2019-04-29T07:49:12.731Z,10.50
2019-04-29T07:49:47.399Z,10.50
2019-04-29T07:50:26.766Z,10.60
2019-04-29T07:51:04.121Z,10.60
2019-04-29T07:51:39.416Z,10.60
2019-04-29T07:52:14.440Z,10.60
2019-04-29T07:52:49.961Z,10.60
2019-04-29T07:53:34.637Z,10.70
2019-04-29T07:54:00.953Z,10.70
2019-04-29T07:54:35.179Z,10.70
2019-04-29T07:55:09.808Z,10.80
2019-04-29T07:55:44.086Z,10.80
2019-04-29T07:56:18.279Z,10.80
2019-04-29T07:56:52.656Z,10.80
2019-04-29T07:57:26.721Z,10.90
2019-04-29T07:58:00.977Z,11.00
2019-04-29T07:58:35.077Z,11.00
2019-04-29T07:59:11.239Z,11.10
2019-04-29T07:59:45.026Z,11.10
2019-04-29T08:00:23.270Z,11.10